WAT3681 EGJB-EGNS
Flight info
| Callsign | WAT3681 |
|---|---|
| Flight time | 1h 24m |
| Altitude | 16000 |
| Route | SKERY L22 EMWIP/N0271F180 P16 FIMCA N22 BHD N864 TIGWE DCT BERUL DCT BAGIT |
| Aircraft | AT76/M-SDFGIRY/S |
Departure
| Time | 2026-04-26 15:56 |
|---|---|
| Airport | Guernsey Airport (EGJB) |
Arrival
| Time | 2026-04-26 17:20 |
|---|---|
| Airport | Isle of Man Airport (EGNS) |
| Time | Latitude | Longitude | Altitude | Speed | Heading |
|---|---|---|---|---|---|
| 2026-04-26 15:40 | 49.43258 | -2.59866 | 320 ft | 0 kts | 184° |
| 2026-04-26 15:46 | 49.43292 | -2.59852 | 320 ft | 0 kts | 89° |
| 2026-04-26 15:52 | 49.43292 | -2.59859 | 320 ft | 2 kts | 89° |
| 2026-04-26 15:52 | 49.43292 | -2.59875 | 320 ft | 2 kts | 89° |
| 2026-04-26 15:53 | 49.43288 | -2.59907 | 320 ft | 2 kts | 29° |
| 2026-04-26 15:53 | 49.43278 | -2.59912 | 319 ft | 0 kts | 356° |
| 2026-04-26 15:53 | 49.43297 | -2.59918 | 319 ft | 0 kts | 348° |
| 2026-04-26 15:53 | 49.43332 | -2.59939 | 319 ft | 14 kts | 319° |
| 2026-04-26 15:54 | 49.43339 | -2.60063 | 316 ft | 16 kts | 269° |
| 2026-04-26 15:54 | 49.43336 | -2.60248 | 315 ft | 18 kts | 268° |
| 2026-04-26 15:54 | 49.43330 | -2.60452 | 312 ft | 20 kts | 268° |
| 2026-04-26 15:54 | 49.43334 | -2.60663 | 309 ft | 20 kts | 279° |
| 2026-04-26 15:55 | 49.43358 | -2.60873 | 306 ft | 20 kts | 279° |
| 2026-04-26 15:55 | 49.43361 | -2.61116 | 303 ft | 24 kts | 271° |
| 2026-04-26 15:55 | 49.43366 | -2.61264 | 301 ft | 15 kts | 287° |
| 2026-04-26 15:55 | 49.43436 | -2.61349 | 301 ft | 10 kts | 4° |
| 2026-04-26 15:56 | 49.43469 | -2.61240 | 304 ft | 16 kts | 88° |
| 2026-04-26 15:56 | 49.43476 | -2.60835 | 309 ft | 69 kts | 88° |
| 2026-04-26 15:56 | 49.43522 | -2.59787 | 477 ft | 112 kts | 84° |
| 2026-04-26 15:56 | 49.43630 | -2.58586 | 959 ft | 130 kts | 79° |
| 2026-04-26 15:57 | 49.43689 | -2.57013 | 1314 ft | 160 kts | 89° |
| 2026-04-26 15:57 | 49.43688 | -2.55201 | 1577 ft | 175 kts | 91° |
| 2026-04-26 15:57 | 49.43671 | -2.53302 | 1966 ft | 179 kts | 91° |
| 2026-04-26 15:57 | 49.43670 | -2.52029 | 2214 ft | 181 kts | 89° |
| 2026-04-26 15:58 | 49.44399 | -2.49758 | 2671 ft | 189 kts | 33° |
| 2026-04-26 15:58 | 49.45668 | -2.49377 | 3030 ft | 191 kts | 347° |
| 2026-04-26 15:58 | 49.46741 | -2.50454 | 3436 ft | 187 kts | 303° |
| 2026-04-26 15:58 | 49.47335 | -2.52191 | 3758 ft | 187 kts | 296° |
| 2026-04-26 15:59 | 49.47884 | -2.53995 | 4171 ft | 185 kts | 294° |
| 2026-04-26 15:59 | 49.48404 | -2.55801 | 4598 ft | 184 kts | 294° |
| 2026-04-26 15:59 | 49.48912 | -2.57613 | 4994 ft | 185 kts | 294° |
| 2026-04-26 15:59 | 49.49422 | -2.59443 | 5333 ft | 187 kts | 294° |
| 2026-04-26 16:00 | 49.49938 | -2.61283 | 5668 ft | 188 kts | 294° |
| 2026-04-26 16:00 | 49.50457 | -2.63140 | 5974 ft | 190 kts | 293° |
| 2026-04-26 16:00 | 49.50981 | -2.65011 | 6304 ft | 191 kts | 293° |
| 2026-04-26 16:00 | 49.51499 | -2.66872 | 6614 ft | 193 kts | 293° |
| 2026-04-26 16:01 | 49.52073 | -2.68736 | 6908 ft | 194 kts | 297° |
| 2026-04-26 16:01 | 49.52742 | -2.70520 | 7256 ft | 192 kts | 299° |
| 2026-04-26 16:01 | 49.53432 | -2.72303 | 7515 ft | 196 kts | 300° |
| 2026-04-26 16:01 | 49.54136 | -2.74103 | 7833 ft | 196 kts | 300° |
| 2026-04-26 16:02 | 49.54845 | -2.75912 | 8119 ft | 198 kts | 300° |
| 2026-04-26 16:02 | 49.55566 | -2.77713 | 8437 ft | 198 kts | 300° |
| 2026-04-26 16:02 | 49.56321 | -2.79486 | 8730 ft | 199 kts | 305° |
| 2026-04-26 16:02 | 49.56898 | -2.80597 | 8908 ft | 201 kts | 307° |
| 2026-04-26 16:03 | 49.58114 | -2.82767 | 9302 ft | 203 kts | 311° |
| 2026-04-26 16:03 | 49.59095 | -2.84347 | 9584 ft | 205 kts | 313° |
| 2026-04-26 16:03 | 49.60112 | -2.85887 | 9885 ft | 204 kts | 315° |
| 2026-04-26 16:03 | 49.61330 | -2.87070 | 10045 ft | 212 kts | 332° |
| 2026-04-26 16:04 | 49.62683 | -2.88022 | 10232 ft | 216 kts | 334° |
| 2026-04-26 16:04 | 49.64065 | -2.88967 | 10434 ft | 218 kts | 334° |
| 2026-04-26 16:04 | 49.65444 | -2.89962 | 10636 ft | 219 kts | 332° |
| 2026-04-26 16:04 | 49.66796 | -2.91000 | 10847 ft | 221 kts | 331° |
| 2026-04-26 16:05 | 49.68169 | -2.92078 | 11034 ft | 223 kts | 331° |
| 2026-04-26 16:05 | 49.69554 | -2.93167 | 11206 ft | 225 kts | 331° |
| 2026-04-26 16:05 | 49.70952 | -2.94265 | 11396 ft | 226 kts | 331° |
| 2026-04-26 16:05 | 49.72356 | -2.95367 | 11597 ft | 226 kts | 330° |
| 2026-04-26 16:06 | 49.73754 | -2.96478 | 11820 ft | 226 kts | 330° |
| 2026-04-26 16:06 | 49.75145 | -2.97573 | 12087 ft | 223 kts | 330° |
| 2026-04-26 16:06 | 49.76519 | -2.98653 | 12390 ft | 220 kts | 330° |
| 2026-04-26 16:06 | 49.77885 | -2.99732 | 12631 ft | 221 kts | 329° |
| 2026-04-26 16:07 | 49.79239 | -3.00799 | 12847 ft | 222 kts | 329° |
| 2026-04-26 16:07 | 49.80616 | -3.01888 | 13076 ft | 223 kts | 329° |
| 2026-04-26 16:07 | 49.82002 | -3.02983 | 13296 ft | 224 kts | 329° |
| 2026-04-26 16:07 | 49.83393 | -3.04083 | 13515 ft | 225 kts | 329° |
| 2026-04-26 16:08 | 49.84791 | -3.05190 | 13736 ft | 226 kts | 329° |
| 2026-04-26 16:08 | 49.85721 | -3.05928 | 13877 ft | 227 kts | 329° |
| 2026-04-26 16:08 | 49.87607 | -3.07423 | 14148 ft | 228 kts | 329° |
| 2026-04-26 16:08 | 49.89020 | -3.08542 | 14339 ft | 228 kts | 329° |
| 2026-04-26 16:09 | 49.90417 | -3.09652 | 14527 ft | 228 kts | 328° |
| 2026-04-26 16:09 | 49.91832 | -3.10774 | 14710 ft | 229 kts | 328° |
| 2026-04-26 16:09 | 49.93249 | -3.11897 | 14908 ft | 228 kts | 328° |
| 2026-04-26 16:09 | 49.94659 | -3.13021 | 15096 ft | 228 kts | 328° |
| 2026-04-26 16:10 | 49.96073 | -3.14146 | 15268 ft | 228 kts | 328° |
| 2026-04-26 16:10 | 49.97486 | -3.15270 | 15439 ft | 228 kts | 328° |
| 2026-04-26 16:10 | 49.98903 | -3.16397 | 15599 ft | 229 kts | 328° |
| 2026-04-26 16:10 | 50.00181 | -3.17776 | 15723 ft | 220 kts | 305° |
| 2026-04-26 16:11 | 50.01036 | -3.19689 | 15832 ft | 218 kts | 296° |
| 2026-04-26 16:11 | 50.01792 | -3.21733 | 15973 ft | 218 kts | 294° |
| 2026-04-26 16:11 | 50.02523 | -3.23799 | 16115 ft | 219 kts | 294° |
| 2026-04-26 16:11 | 50.03264 | -3.25887 | 16178 ft | 223 kts | 294° |
| 2026-04-26 16:12 | 50.04040 | -3.28001 | 16216 ft | 228 kts | 295° |
| 2026-04-26 16:12 | 50.04847 | -3.30148 | 16230 ft | 232 kts | 296° |
| 2026-04-26 16:12 | 50.07190 | -3.33595 | 16242 ft | 247 kts | 329° |
| 2026-04-26 16:13 | 50.08744 | -3.34711 | 16241 ft | 251 kts | 331° |
| 2026-04-26 16:13 | 50.10341 | -3.35840 | 16245 ft | 253 kts | 330° |
| 2026-04-26 16:13 | 50.11937 | -3.37020 | 16246 ft | 254 kts | 329° |
| 2026-04-26 16:13 | 50.13516 | -3.38271 | 16245 ft | 255 kts | 327° |
| 2026-04-26 16:14 | 50.15093 | -3.39552 | 16252 ft | 256 kts | 328° |
| 2026-04-26 16:14 | 50.16677 | -3.40832 | 16248 ft | 257 kts | 328° |
| 2026-04-26 16:14 | 50.19854 | -3.43388 | 16249 ft | 257 kts | 328° |
| 2026-04-26 16:15 | 50.21424 | -3.44653 | 16245 ft | 257 kts | 328° |
| 2026-04-26 16:15 | 50.23015 | -3.45938 | 16245 ft | 257 kts | 328° |
| 2026-04-26 16:15 | 50.24604 | -3.47225 | 16246 ft | 258 kts | 328° |
| 2026-04-26 16:16 | 50.27794 | -3.49764 | 16250 ft | 256 kts | 334° |
| 2026-04-26 16:16 | 50.29570 | -3.50197 | 16252 ft | 263 kts | 356° |
| 2026-04-26 16:16 | 50.31406 | -3.50070 | 16253 ft | 266 kts | 1° |
| 2026-04-26 16:16 | 50.33253 | -3.49849 | 16252 ft | 266 kts | 1° |
| 2026-04-26 16:17 | 50.35105 | -3.49638 | 16252 ft | 267 kts | 0° |
| 2026-04-26 16:17 | 50.36933 | -3.49496 | 16260 ft | 267 kts | 358° |
| 2026-04-26 16:17 | 50.38785 | -3.49399 | 16258 ft | 266 kts | 358° |
| 2026-04-26 16:17 | 50.40637 | -3.49259 | 16258 ft | 267 kts | 0° |
| 2026-04-26 16:18 | 50.42489 | -3.49015 | 16255 ft | 267 kts | 2° |
| 2026-04-26 16:18 | 50.46194 | -3.48363 | 16260 ft | 268 kts | 3° |
| 2026-04-26 16:19 | 50.49902 | -3.47738 | 16260 ft | 268 kts | 2° |
| 2026-04-26 16:19 | 50.51731 | -3.47427 | 16260 ft | 268 kts | 2° |
| 2026-04-26 16:19 | 50.54837 | -3.46903 | 16261 ft | 268 kts | 2° |
| 2026-04-26 16:20 | 50.57295 | -3.46481 | 16256 ft | 268 kts | 3° |
| 2026-04-26 16:20 | 50.61003 | -3.45754 | 16268 ft | 269 kts | 3° |
| 2026-04-26 16:20 | 50.62864 | -3.45387 | 16265 ft | 269 kts | 3° |
| 2026-04-26 16:21 | 50.64725 | -3.45027 | 16264 ft | 269 kts | 3° |
| 2026-04-26 16:21 | 50.66557 | -3.44672 | 16263 ft | 269 kts | 3° |
| 2026-04-26 16:21 | 50.68411 | -3.44304 | 16267 ft | 269 kts | 3° |
| 2026-04-26 16:21 | 50.70269 | -3.43939 | 16271 ft | 269 kts | 3° |
| 2026-04-26 16:22 | 50.72127 | -3.43575 | 16263 ft | 270 kts | 3° |
| 2026-04-26 16:22 | 50.73989 | -3.43206 | 16266 ft | 269 kts | 3° |
| 2026-04-26 16:22 | 50.75848 | -3.42837 | 16259 ft | 269 kts | 3° |
| 2026-04-26 16:22 | 50.77705 | -3.42473 | 16263 ft | 269 kts | 3° |
| 2026-04-26 16:23 | 50.79559 | -3.42106 | 16261 ft | 268 kts | 3° |
| 2026-04-26 16:23 | 50.81411 | -3.41742 | 16266 ft | 268 kts | 3° |
| 2026-04-26 16:23 | 50.83238 | -3.41382 | 16279 ft | 268 kts | 3° |
| 2026-04-26 16:23 | 50.85095 | -3.41014 | 16268 ft | 269 kts | 3° |
| 2026-04-26 16:24 | 50.86950 | -3.40645 | 16266 ft | 269 kts | 3° |
| 2026-04-26 16:24 | 50.88807 | -3.40278 | 16263 ft | 269 kts | 3° |
| 2026-04-26 16:24 | 50.90663 | -3.39904 | 16265 ft | 269 kts | 3° |
| 2026-04-26 16:24 | 50.92517 | -3.39535 | 16267 ft | 269 kts | 3° |
| 2026-04-26 16:25 | 50.94378 | -3.39168 | 16272 ft | 269 kts | 3° |
| 2026-04-26 16:25 | 50.96234 | -3.38797 | 16264 ft | 269 kts | 4° |
| 2026-04-26 16:25 | 50.98066 | -3.38431 | 16266 ft | 269 kts | 3° |
| 2026-04-26 16:25 | 50.99922 | -3.38062 | 16269 ft | 269 kts | 3° |
| 2026-04-26 16:26 | 51.01776 | -3.37695 | 16265 ft | 269 kts | 3° |
| 2026-04-26 16:26 | 51.03029 | -3.37442 | 16269 ft | 269 kts | 3° |
| 2026-04-26 16:26 | 51.05485 | -3.36953 | 16262 ft | 269 kts | 3° |
| 2026-04-26 16:26 | 51.07341 | -3.36579 | 16261 ft | 268 kts | 3° |
| 2026-04-26 16:27 | 51.09192 | -3.36210 | 16267 ft | 268 kts | 3° |
| 2026-04-26 16:27 | 51.11045 | -3.35841 | 16263 ft | 268 kts | 3° |
| 2026-04-26 16:27 | 51.12895 | -3.35469 | 16260 ft | 268 kts | 3° |
| 2026-04-26 16:27 | 51.14721 | -3.35106 | 16263 ft | 267 kts | 3° |
| 2026-04-26 16:28 | 51.16564 | -3.34741 | 16268 ft | 267 kts | 3° |
| 2026-04-26 16:28 | 51.18412 | -3.34370 | 16268 ft | 268 kts | 3° |
| 2026-04-26 16:28 | 51.20262 | -3.33993 | 16263 ft | 268 kts | 3° |
| 2026-04-26 16:28 | 51.22116 | -3.33618 | 16262 ft | 268 kts | 3° |
| 2026-04-26 16:29 | 51.23967 | -3.33245 | 16267 ft | 268 kts | 3° |
| 2026-04-26 16:29 | 51.25816 | -3.32870 | 16266 ft | 268 kts | 4° |
| 2026-04-26 16:29 | 51.27661 | -3.32490 | 16265 ft | 267 kts | 4° |
| 2026-04-26 16:29 | 51.29505 | -3.32119 | 16266 ft | 267 kts | 4° |
| 2026-04-26 16:30 | 51.31323 | -3.31751 | 16270 ft | 267 kts | 4° |
| 2026-04-26 16:30 | 51.33163 | -3.31380 | 16267 ft | 267 kts | 4° |
| 2026-04-26 16:30 | 51.35005 | -3.31007 | 16267 ft | 267 kts | 4° |
| 2026-04-26 16:30 | 51.36842 | -3.30635 | 16267 ft | 267 kts | 4° |
| 2026-04-26 16:31 | 51.38686 | -3.30267 | 16268 ft | 267 kts | 4° |
| 2026-04-26 16:31 | 51.40529 | -3.29894 | 16270 ft | 267 kts | 4° |
| 2026-04-26 16:31 | 51.42377 | -3.29518 | 16265 ft | 268 kts | 4° |
| 2026-04-26 16:31 | 51.44227 | -3.29138 | 16269 ft | 268 kts | 5° |
| 2026-04-26 16:32 | 51.46078 | -3.28761 | 16270 ft | 268 kts | 4° |
| 2026-04-26 16:32 | 51.47305 | -3.28512 | 16263 ft | 268 kts | 4° |
| 2026-04-26 16:32 | 51.49756 | -3.28011 | 16272 ft | 268 kts | 4° |
| 2026-04-26 16:32 | 51.51606 | -3.27634 | 16272 ft | 268 kts | 4° |
| 2026-04-26 16:33 | 51.53459 | -3.27256 | 16267 ft | 268 kts | 5° |
| 2026-04-26 16:33 | 51.55310 | -3.26874 | 16264 ft | 268 kts | 5° |
| 2026-04-26 16:33 | 51.57163 | -3.26495 | 16266 ft | 269 kts | 5° |
| 2026-04-26 16:33 | 51.59018 | -3.26118 | 16261 ft | 269 kts | 5° |
| 2026-04-26 16:34 | 51.60874 | -3.25739 | 16272 ft | 269 kts | 5° |
| 2026-04-26 16:34 | 51.62726 | -3.25357 | 16280 ft | 268 kts | 5° |
| 2026-04-26 16:34 | 51.64578 | -3.24978 | 16278 ft | 268 kts | 5° |
| 2026-04-26 16:34 | 51.66398 | -3.24611 | 16281 ft | 267 kts | 4° |
| 2026-04-26 16:35 | 51.68243 | -3.24231 | 16286 ft | 268 kts | 5° |
| 2026-04-26 16:35 | 51.70093 | -3.23845 | 16286 ft | 268 kts | 5° |
| 2026-04-26 16:35 | 51.71946 | -3.23464 | 16283 ft | 268 kts | 5° |
| 2026-04-26 16:35 | 51.73797 | -3.23082 | 16289 ft | 269 kts | 5° |
| 2026-04-26 16:36 | 51.75653 | -3.22696 | 16261 ft | 269 kts | 5° |
| 2026-04-26 16:36 | 51.77511 | -3.22317 | 16271 ft | 269 kts | 5° |
| 2026-04-26 16:36 | 51.79368 | -3.21931 | 16271 ft | 269 kts | 5° |
| 2026-04-26 16:36 | 51.81225 | -3.21729 | 16263 ft | 265 kts | 353° |
| 2026-04-26 16:37 | 51.83003 | -3.22215 | 16271 ft | 262 kts | 343° |
| 2026-04-26 16:37 | 51.84773 | -3.22935 | 16264 ft | 262 kts | 342° |
| 2026-04-26 16:37 | 51.86544 | -3.23669 | 16264 ft | 263 kts | 343° |
| 2026-04-26 16:37 | 51.87725 | -3.24124 | 16276 ft | 264 kts | 344° |
| 2026-04-26 16:38 | 51.90130 | -3.24962 | 16269 ft | 265 kts | 345° |
| 2026-04-26 16:38 | 51.91935 | -3.25582 | 16266 ft | 265 kts | 345° |
| 2026-04-26 16:38 | 51.93741 | -3.26206 | 16268 ft | 265 kts | 345° |
| 2026-04-26 16:38 | 51.95545 | -3.26830 | 16273 ft | 265 kts | 345° |
| 2026-04-26 16:39 | 51.97327 | -3.27451 | 16280 ft | 266 kts | 345° |
| 2026-04-26 16:39 | 51.99140 | -3.28080 | 16265 ft | 266 kts | 345° |
| 2026-04-26 16:39 | 52.00951 | -3.28709 | 16276 ft | 266 kts | 345° |
| 2026-04-26 16:39 | 52.02763 | -3.29341 | 16276 ft | 266 kts | 345° |
| 2026-04-26 16:40 | 52.04577 | -3.29973 | 16269 ft | 267 kts | 345° |
| 2026-04-26 16:40 | 52.06393 | -3.30604 | 16270 ft | 267 kts | 345° |
| 2026-04-26 16:40 | 52.08203 | -3.31238 | 16272 ft | 266 kts | 345° |
| 2026-04-26 16:40 | 52.10017 | -3.31868 | 16273 ft | 267 kts | 345° |
| 2026-04-26 16:41 | 52.11806 | -3.32497 | 16280 ft | 267 kts | 345° |
| 2026-04-26 16:41 | 52.13622 | -3.33130 | 16275 ft | 267 kts | 345° |
| 2026-04-26 16:41 | 52.15438 | -3.33765 | 16276 ft | 267 kts | 345° |
| 2026-04-26 16:41 | 52.17256 | -3.34404 | 16274 ft | 267 kts | 345° |
| 2026-04-26 16:42 | 52.19072 | -3.35041 | 16272 ft | 267 kts | 345° |
| 2026-04-26 16:42 | 52.20889 | -3.35676 | 16279 ft | 267 kts | 345° |
| 2026-04-26 16:42 | 52.22704 | -3.36316 | 16275 ft | 267 kts | 345° |
| 2026-04-26 16:42 | 52.24524 | -3.36954 | 16278 ft | 267 kts | 345° |
| 2026-04-26 16:43 | 52.26342 | -3.37591 | 16271 ft | 267 kts | 345° |
| 2026-04-26 16:43 | 52.28134 | -3.38222 | 16273 ft | 267 kts | 345° |
| 2026-04-26 16:43 | 52.29947 | -3.38862 | 16274 ft | 267 kts | 345° |
| 2026-04-26 16:43 | 52.31764 | -3.39503 | 16265 ft | 267 kts | 345° |
| 2026-04-26 16:44 | 52.33575 | -3.40140 | 16276 ft | 266 kts | 345° |
| 2026-04-26 16:44 | 52.35383 | -3.40780 | 16281 ft | 266 kts | 345° |
| 2026-04-26 16:44 | 52.37192 | -3.41421 | 16277 ft | 266 kts | 345° |
| 2026-04-26 16:44 | 52.39005 | -3.42062 | 16277 ft | 267 kts | 345° |
| 2026-04-26 16:45 | 52.40819 | -3.42705 | 16271 ft | 267 kts | 345° |
| 2026-04-26 16:45 | 52.42609 | -3.43338 | 16271 ft | 267 kts | 345° |
| 2026-04-26 16:45 | 52.44420 | -3.43982 | 16267 ft | 266 kts | 345° |
| 2026-04-26 16:45 | 52.46229 | -3.44624 | 16278 ft | 267 kts | 345° |
| 2026-04-26 16:46 | 52.48045 | -3.45271 | 16279 ft | 267 kts | 345° |
| 2026-04-26 16:46 | 52.49858 | -3.45912 | 16276 ft | 267 kts | 346° |
| 2026-04-26 16:46 | 52.51673 | -3.46560 | 16270 ft | 267 kts | 345° |
| 2026-04-26 16:46 | 52.53485 | -3.47203 | 16263 ft | 266 kts | 345° |
| 2026-04-26 16:47 | 52.55291 | -3.47850 | 16271 ft | 266 kts | 345° |
| 2026-04-26 16:47 | 52.56489 | -3.48275 | 16274 ft | 266 kts | 346° |
| 2026-04-26 16:47 | 52.58297 | -3.48920 | 16266 ft | 266 kts | 345° |
| 2026-04-26 16:47 | 52.60690 | -3.49776 | 16265 ft | 266 kts | 346° |
| 2026-04-26 16:48 | 52.62497 | -3.50423 | 16267 ft | 266 kts | 345° |
| 2026-04-26 16:48 | 52.64309 | -3.51072 | 16263 ft | 267 kts | 345° |
| 2026-04-26 16:48 | 52.66123 | -3.51732 | 16266 ft | 267 kts | 345° |
| 2026-04-26 16:48 | 52.67904 | -3.52540 | 16268 ft | 265 kts | 335° |
| 2026-04-26 16:49 | 52.69013 | -3.53365 | 16267 ft | 263 kts | 330° |
| 2026-04-26 16:49 | 52.70629 | -3.54788 | 16268 ft | 263 kts | 328° |
| 2026-04-26 16:49 | 52.72231 | -3.56247 | 16266 ft | 263 kts | 328° |
| 2026-04-26 16:49 | 52.74381 | -3.58113 | 16261 ft | 264 kts | 330° |
| 2026-04-26 16:50 | 52.76023 | -3.59469 | 16261 ft | 264 kts | 330° |
| 2026-04-26 16:50 | 52.77662 | -3.60832 | 16265 ft | 264 kts | 330° |
| 2026-04-26 16:50 | 52.79299 | -3.62194 | 16268 ft | 264 kts | 330° |
| 2026-04-26 16:50 | 52.80388 | -3.63097 | 16267 ft | 264 kts | 330° |
| 2026-04-26 16:51 | 52.82031 | -3.64467 | 16265 ft | 264 kts | 330° |
| 2026-04-26 16:51 | 52.83672 | -3.65837 | 16260 ft | 264 kts | 330° |
| 2026-04-26 16:51 | 52.85310 | -3.67202 | 16260 ft | 263 kts | 330° |
| 2026-04-26 16:51 | 52.87476 | -3.69012 | 16267 ft | 263 kts | 330° |
| 2026-04-26 16:52 | 52.89109 | -3.70378 | 16265 ft | 263 kts | 330° |
| 2026-04-26 16:52 | 52.89661 | -3.70840 | 16266 ft | 263 kts | 330° |
| 2026-04-26 16:52 | 52.91845 | -3.72671 | 16264 ft | 263 kts | 330° |
| 2026-04-26 16:52 | 52.93459 | -3.74020 | 16263 ft | 263 kts | 330° |
| 2026-04-26 16:53 | 52.95089 | -3.75391 | 16271 ft | 263 kts | 330° |
| 2026-04-26 16:53 | 52.96720 | -3.76759 | 16265 ft | 263 kts | 331° |
| 2026-04-26 16:53 | 52.98351 | -3.78129 | 16263 ft | 262 kts | 331° |
| 2026-04-26 16:53 | 52.99978 | -3.79493 | 16264 ft | 262 kts | 330° |
| 2026-04-26 16:54 | 53.01601 | -3.80862 | 16264 ft | 262 kts | 331° |
| 2026-04-26 16:54 | 53.03228 | -3.82227 | 16266 ft | 262 kts | 331° |
| 2026-04-26 16:54 | 53.04848 | -3.83597 | 16270 ft | 261 kts | 330° |
| 2026-04-26 16:54 | 53.06468 | -3.84965 | 16269 ft | 261 kts | 330° |
| 2026-04-26 16:55 | 53.08087 | -3.86334 | 16273 ft | 261 kts | 330° |
| 2026-04-26 16:55 | 53.09712 | -3.87704 | 16272 ft | 262 kts | 330° |
| 2026-04-26 16:55 | 53.11313 | -3.89056 | 16277 ft | 262 kts | 330° |
| 2026-04-26 16:55 | 53.12936 | -3.90430 | 16274 ft | 262 kts | 330° |
| 2026-04-26 16:56 | 53.16183 | -3.93184 | 16277 ft | 262 kts | 331° |
| 2026-04-26 16:56 | 53.17805 | -3.94563 | 16274 ft | 262 kts | 330° |
| 2026-04-26 16:56 | 53.19427 | -3.95944 | 16282 ft | 262 kts | 330° |
| 2026-04-26 16:57 | 53.21050 | -3.97320 | 16279 ft | 262 kts | 331° |
| 2026-04-26 16:57 | 53.22675 | -3.98694 | 16279 ft | 262 kts | 332° |
| 2026-04-26 16:57 | 53.25993 | -4.01161 | 16272 ft | 263 kts | 335° |
| 2026-04-26 16:58 | 53.27674 | -4.02367 | 16274 ft | 263 kts | 334° |
| 2026-04-26 16:58 | 53.28806 | -4.03188 | 16274 ft | 263 kts | 334° |
| 2026-04-26 16:58 | 53.32690 | -4.06032 | 16274 ft | 262 kts | 334° |
| 2026-04-26 16:59 | 53.34364 | -4.07253 | 16269 ft | 262 kts | 334° |
| 2026-04-26 16:59 | 53.37707 | -4.09699 | 16262 ft | 262 kts | 334° |
| 2026-04-26 17:00 | 53.41023 | -4.12133 | 16267 ft | 262 kts | 335° |
| 2026-04-26 17:00 | 53.44339 | -4.14555 | 16266 ft | 259 kts | 335° |
| 2026-04-26 17:00 | 53.45986 | -4.15768 | 16268 ft | 258 kts | 335° |
| 2026-04-26 17:01 | 53.47629 | -4.16983 | 16263 ft | 257 kts | 335° |
| 2026-04-26 17:01 | 53.49268 | -4.18189 | 16265 ft | 257 kts | 335° |
| 2026-04-26 17:01 | 53.50884 | -4.19380 | 16262 ft | 257 kts | 335° |
| 2026-04-26 17:01 | 53.52519 | -4.20589 | 16265 ft | 257 kts | 335° |
| 2026-04-26 17:02 | 53.54154 | -4.21796 | 16265 ft | 256 kts | 335° |
| 2026-04-26 17:02 | 53.55786 | -4.23003 | 16266 ft | 256 kts | 335° |
| 2026-04-26 17:02 | 53.57417 | -4.24209 | 16265 ft | 256 kts | 335° |
| 2026-04-26 17:02 | 53.59047 | -4.25417 | 16267 ft | 256 kts | 335° |
| 2026-04-26 17:03 | 53.60685 | -4.26625 | 16023 ft | 258 kts | 335° |
| 2026-04-26 17:03 | 53.62333 | -4.27841 | 15654 ft | 259 kts | 335° |
| 2026-04-26 17:03 | 53.63989 | -4.29073 | 15285 ft | 260 kts | 335° |
| 2026-04-26 17:03 | 53.65647 | -4.30311 | 14920 ft | 261 kts | 335° |
| 2026-04-26 17:04 | 53.67287 | -4.31530 | 14567 ft | 261 kts | 334° |
| 2026-04-26 17:04 | 53.68952 | -4.32763 | 14213 ft | 262 kts | 334° |
| 2026-04-26 17:04 | 53.70620 | -4.34005 | 13829 ft | 262 kts | 334° |
| 2026-04-26 17:04 | 53.72283 | -4.35250 | 13425 ft | 261 kts | 334° |
| 2026-04-26 17:05 | 53.73941 | -4.36489 | 13030 ft | 261 kts | 334° |
| 2026-04-26 17:05 | 53.75598 | -4.37730 | 12639 ft | 260 kts | 334° |
| 2026-04-26 17:05 | 53.77254 | -4.38967 | 12252 ft | 260 kts | 334° |
| 2026-04-26 17:05 | 53.78903 | -4.40202 | 11871 ft | 259 kts | 333° |
| 2026-04-26 17:06 | 53.80525 | -4.41414 | 11506 ft | 257 kts | 333° |
| 2026-04-26 17:06 | 53.82156 | -4.42637 | 11146 ft | 256 kts | 333° |
| 2026-04-26 17:06 | 53.83784 | -4.43860 | 10791 ft | 255 kts | 333° |
| 2026-04-26 17:06 | 53.85402 | -4.45075 | 10439 ft | 254 kts | 333° |
| 2026-04-26 17:07 | 53.87018 | -4.46291 | 10077 ft | 254 kts | 333° |
| 2026-04-26 17:07 | 53.88629 | -4.47503 | 9693 ft | 253 kts | 333° |
| 2026-04-26 17:07 | 53.90237 | -4.48712 | 9320 ft | 252 kts | 333° |
| 2026-04-26 17:07 | 53.91839 | -4.49915 | 8958 ft | 251 kts | 333° |
| 2026-04-26 17:08 | 53.93433 | -4.51113 | 8593 ft | 250 kts | 332° |
| 2026-04-26 17:08 | 53.95018 | -4.52313 | 8236 ft | 249 kts | 332° |
| 2026-04-26 17:08 | 53.96573 | -4.53490 | 7884 ft | 248 kts | 333° |
| 2026-04-26 17:08 | 53.98142 | -4.54674 | 7542 ft | 246 kts | 333° |
| 2026-04-26 17:09 | 53.99700 | -4.55851 | 7202 ft | 244 kts | 333° |
| 2026-04-26 17:09 | 54.00726 | -4.56630 | 6978 ft | 243 kts | 333° |
| 2026-04-26 17:09 | 54.02772 | -4.58182 | 6521 ft | 239 kts | 333° |
| 2026-04-26 17:09 | 54.04291 | -4.59328 | 6121 ft | 239 kts | 333° |
| 2026-04-26 17:10 | 54.05814 | -4.60484 | 5693 ft | 240 kts | 333° |
| 2026-04-26 17:10 | 54.07317 | -4.61632 | 5282 ft | 240 kts | 333° |
| 2026-04-26 17:10 | 54.08808 | -4.62768 | 5164 ft | 227 kts | 333° |
| 2026-04-26 17:10 | 54.10205 | -4.63827 | 5154 ft | 213 kts | 333° |
| 2026-04-26 17:11 | 54.11347 | -4.65214 | 5022 ft | 199 kts | 301° |
| 2026-04-26 17:11 | 54.11952 | -4.67263 | 4876 ft | 192 kts | 292° |
| 2026-04-26 17:11 | 54.12488 | -4.69347 | 4699 ft | 192 kts | 290° |
| 2026-04-26 17:11 | 54.13000 | -4.71444 | 4502 ft | 193 kts | 290° |
| 2026-04-26 17:12 | 54.13989 | -4.75728 | 3990 ft | 195 kts | 289° |
| 2026-04-26 17:12 | 54.14461 | -4.77898 | 3734 ft | 195 kts | 290° |
| 2026-04-26 17:13 | 54.15345 | -4.82235 | 3234 ft | 195 kts | 289° |
| 2026-04-26 17:13 | 54.15781 | -4.84424 | 2979 ft | 195 kts | 289° |
| 2026-04-26 17:13 | 54.15145 | -4.88554 | 2470 ft | 204 kts | 216° |
| 2026-04-26 17:14 | 54.13909 | -4.89741 | 2210 ft | 206 kts | 209° |
| 2026-04-26 17:14 | 54.11300 | -4.91993 | 1702 ft | 217 kts | 207° |
| 2026-04-26 17:14 | 54.09928 | -4.93154 | 1437 ft | 222 kts | 207° |
| 2026-04-26 17:15 | 54.07146 | -4.95475 | 940 ft | 224 kts | 204° |
| 2026-04-26 17:15 | 54.05636 | -4.96054 | 806 ft | 222 kts | 183° |
| 2026-04-26 17:15 | 54.04117 | -4.95658 | 1110 ft | 223 kts | 162° |
| 2026-04-26 17:16 | 54.02870 | -4.94181 | 1412 ft | 214 kts | 137° |
| 2026-04-26 17:16 | 54.02166 | -4.92069 | 1715 ft | 206 kts | 99° |
| 2026-04-26 17:16 | 54.02403 | -4.89715 | 1877 ft | 204 kts | 62° |
| 2026-04-26 17:16 | 54.03140 | -4.87601 | 1933 ft | 215 kts | 57° |
| 2026-04-26 17:17 | 54.03995 | -4.85478 | 1970 ft | 223 kts | 47° |
| 2026-04-26 17:17 | 54.05058 | -4.83615 | 1969 ft | 217 kts | 43° |
| 2026-04-26 17:17 | 54.06142 | -4.81852 | 1982 ft | 215 kts | 42° |
| 2026-04-26 17:17 | 54.07030 | -4.79892 | 1969 ft | 209 kts | 69° |
| 2026-04-26 17:18 | 54.07218 | -4.77524 | 1985 ft | 198 kts | 85° |
| 2026-04-26 17:18 | 54.07305 | -4.75204 | 1686 ft | 187 kts | 86° |
| 2026-04-26 17:18 | 54.07372 | -4.73137 | 1402 ft | 165 kts | 89° |
| 2026-04-26 17:18 | 54.07459 | -4.71234 | 1136 ft | 157 kts | 84° |
| 2026-04-26 17:19 | 54.07746 | -4.67969 | 743 ft | 119 kts | 88° |
| 2026-04-26 17:19 | 54.07818 | -4.66644 | 547 ft | 108 kts | 84° |
| 2026-04-26 17:19 | 54.07960 | -4.65370 | 363 ft | 108 kts | 79° |
| 2026-04-26 17:20 | 54.08126 | -4.64127 | 158 ft | 108 kts | 80° |
| 2026-04-26 17:20 | 54.08220 | -4.63305 | 55 ft | 106 kts | 80° |
| 2026-04-26 17:20 | 54.08384 | -4.61911 | 26 ft | 56 kts | 78° |
| 2026-04-26 17:20 | 54.08440 | -4.61500 | 22 ft | 22 kts | 75° |
| 2026-04-26 17:21 | 54.08495 | -4.61426 | 20 ft | 14 kts | 339° |
| 2026-04-26 17:21 | 54.08538 | -4.61588 | 25 ft | 15 kts | 277° |
| 2026-04-26 17:21 | 54.08549 | -4.61778 | 26 ft | 17 kts | 273° |
| 2026-04-26 17:21 | 54.08546 | -4.61948 | 29 ft | 12 kts | 260° |
| 2026-04-26 17:22 | 54.08511 | -4.62227 | 35 ft | 29 kts | 260° |
| 2026-04-26 17:22 | 54.08479 | -4.62499 | 36 ft | 20 kts | 258° |
| 2026-04-26 17:22 | 54.08453 | -4.62701 | 36 ft | 16 kts | 257° |
| 2026-04-26 17:22 | 54.08432 | -4.62871 | 34 ft | 14 kts | 261° |
| 2026-04-26 17:23 | 54.08460 | -4.62995 | 35 ft | 20 kts | 334° |
| 2026-04-26 17:23 | 54.08593 | -4.63074 | 36 ft | 18 kts | 317° |
| 2026-04-26 17:23 | 54.08682 | -4.63265 | 37 ft | 11 kts | 302° |
| 2026-04-26 17:23 | 54.08670 | -4.63332 | 37 ft | 0 kts | 219° |